createdAt,value
2017-07-11T14:45:08.685Z,26.97
2017-07-11T14:47:37.089Z,27.51
2017-07-11T14:50:05.510Z,27.72
2017-07-11T14:52:33.906Z,27.23
2017-07-11T14:55:02.697Z,26.78
2017-07-11T14:57:31.804Z,26.85
2017-07-11T15:00:00.485Z,26.65
2017-07-11T15:02:29.276Z,26.72
2017-07-11T15:04:58.879Z,26.68
2017-07-11T15:07:27.976Z,26.74
2017-07-11T15:09:56.765Z,26.82
2017-07-11T15:12:25.571Z,26.84
2017-07-11T15:14:53.971Z,26.69
2017-07-11T15:17:22.501Z,26.40
2017-07-11T15:19:51.210Z,26.69
2017-07-11T15:22:19.997Z,26.74
2017-07-11T15:24:48.793Z,26.80
2017-07-11T15:27:17.172Z,26.85
2017-07-11T15:29:46.263Z,26.83
2017-07-11T15:32:15.055Z,26.51
2017-07-11T15:34:43.830Z,26.41
2017-07-11T15:37:12.633Z,26.44
2017-07-11T15:39:41.427Z,26.55
2017-07-11T15:42:09.822Z,26.52
2017-07-11T15:44:38.210Z,26.72
2017-07-11T15:47:07.509Z,26.32
2017-07-11T15:49:35.950Z,26.37
2017-07-11T15:52:04.834Z,26.07
2017-07-11T15:54:33.542Z,26.11
2017-07-11T15:57:02.347Z,26.20
2017-07-11T15:59:30.759Z,26.33
2017-07-11T16:01:59.172Z,26.19
2017-07-11T16:04:27.582Z,26.41
2017-07-11T16:06:55.964Z,26.48
2017-07-11T16:09:24.363Z,26.55
2017-07-11T16:11:52.763Z,26.50
2017-07-11T16:14:21.163Z,26.47
2017-07-11T16:16:49.585Z,26.36
2017-07-11T16:19:18.262Z,26.38
2017-07-11T16:21:46.666Z,26.25
2017-07-11T16:24:15.087Z,26.11
2017-07-11T16:26:43.483Z,25.95
2017-07-11T16:29:11.890Z,25.99
2017-07-11T16:31:40.272Z,25.91
2017-07-11T16:34:09.166Z,25.79
2017-07-11T16:36:38.077Z,25.72
2017-07-11T16:39:48.806Z,25.79
2017-07-11T16:42:17.189Z,25.62
2017-07-11T16:44:45.591Z,25.45
2017-07-11T16:47:14.003Z,25.41
2017-07-11T16:49:42.826Z,25.34
2017-07-11T16:52:11.251Z,25.41
2017-07-11T16:54:39.643Z,25.71
2017-07-11T16:57:08.090Z,25.57
2017-07-11T16:59:36.516Z,25.68
2017-07-11T17:02:05.023Z,25.69
2017-07-11T17:04:33.446Z,25.52
2017-07-11T17:07:02.949Z,25.70
2017-07-11T17:09:31.359Z,25.64
2017-07-11T17:11:59.785Z,25.59
2017-07-11T17:14:28.248Z,25.35
2017-07-11T17:16:56.710Z,25.41
2017-07-11T17:19:25.123Z,25.30
2017-07-11T17:21:53.500Z,25.33
2017-07-11T17:24:21.920Z,25.26
2017-07-11T17:26:50.306Z,25.28
2017-07-11T17:29:19.485Z,25.34
2017-07-11T17:31:47.893Z,25.31
2017-07-11T17:34:17.037Z,25.30
2017-07-11T17:36:45.439Z,25.20
2017-07-11T17:39:14.533Z,25.06
2017-07-11T17:41:43.334Z,24.97
2017-07-11T17:44:11.725Z,24.88
2017-07-11T17:46:40.147Z,24.73
2017-07-11T17:49:08.543Z,24.64
2017-07-11T17:51:37.250Z,24.58
2017-07-11T17:54:06.034Z,24.48
2017-07-11T17:56:35.227Z,24.38
2017-07-11T17:59:04.025Z,24.46
2017-07-11T18:01:33.103Z,24.46
2017-07-11T18:04:01.518Z,24.48
2017-07-11T18:06:29.926Z,24.45
2017-07-11T18:08:58.321Z,24.47
2017-07-11T18:11:26.713Z,24.44
2017-07-11T18:13:55.639Z,24.47
2017-07-11T18:16:24.431Z,24.38
2017-07-11T18:18:53.226Z,24.35
2017-07-11T18:21:22.656Z,24.31
2017-07-11T18:23:51.050Z,24.23
2017-07-11T18:26:19.449Z,24.12
2017-07-11T18:28:47.848Z,24.09
2017-07-11T18:31:16.663Z,23.99
2017-07-11T18:33:45.079Z,23.90
2017-07-11T18:36:13.701Z,23.85
2017-07-11T18:38:42.498Z,23.75
2017-07-11T18:41:11.293Z,23.67
2017-07-11T18:43:40.663Z,23.67
2017-07-11T18:46:09.079Z,23.65
2017-07-11T18:48:37.771Z,23.64
2017-07-11T18:51:06.161Z,23.57
2017-07-11T18:53:34.585Z,23.51
2017-07-11T18:56:02.987Z,23.40
2017-07-11T18:58:31.402Z,23.35
2017-07-11T19:00:59.793Z,23.29
2017-07-11T19:03:28.345Z,23.29
2017-07-11T19:05:57.130Z,23.26
2017-07-11T19:08:25.935Z,23.22
2017-07-11T19:10:54.350Z,23.21
2017-07-11T19:13:22.749Z,23.19
2017-07-11T19:15:51.149Z,23.05
2017-07-11T19:18:19.555Z,23.06
2017-07-11T19:20:47.970Z,22.94
2017-07-11T19:23:16.357Z,22.93
2017-07-11T19:25:44.946Z,22.98
2017-07-11T19:28:13.673Z,22.87
2017-07-11T19:30:42.670Z,22.82
2017-07-11T19:33:12.485Z,22.84
2017-07-11T19:35:42.074Z,22.86
2017-07-11T19:38:10.789Z,22.85
2017-07-11T19:40:39.178Z,22.77
2017-07-11T19:43:07.595Z,22.77
2017-07-11T19:45:35.994Z,22.72
2017-07-11T19:48:04.734Z,22.78
2017-07-11T19:50:33.121Z,22.74
2017-07-11T19:53:02.438Z,22.71
2017-07-11T19:55:31.310Z,22.64
2017-07-11T19:57:59.705Z,22.73
2017-07-11T20:00:29.010Z,22.57
2017-07-11T20:02:57.402Z,22.46
2017-07-11T20:05:25.810Z,22.32
2017-07-11T20:07:54.211Z,22.30
2017-07-11T20:10:22.990Z,22.29
2017-07-11T20:12:51.792Z,22.22
2017-07-11T20:15:20.228Z,22.27
2017-07-11T20:17:48.654Z,22.16
2017-07-11T20:20:17.785Z,22.09
2017-07-11T20:22:46.204Z,22.00
2017-07-11T20:25:14.649Z,22.16
2017-07-11T20:27:44.074Z,22.11
2017-07-11T20:30:12.798Z,21.94
2017-07-11T20:32:41.611Z,21.98
2017-07-11T20:35:10.273Z,22.05
2017-07-11T20:37:39.374Z,22.03
2017-07-11T20:40:08.187Z,21.98
2017-07-11T20:42:37.005Z,21.95
2017-07-11T20:45:05.394Z,21.84
2017-07-11T20:47:33.796Z,21.81
2017-07-11T20:50:02.194Z,21.84
2017-07-11T20:52:30.611Z,21.72
2017-07-11T20:54:59.001Z,21.67
2017-07-11T20:57:27.656Z,21.70
2017-07-11T20:59:56.422Z,21.66
2017-07-11T21:02:24.823Z,21.59
2017-07-11T21:04:53.319Z,21.64
2017-07-11T21:07:21.973Z,21.75
2017-07-11T21:09:50.784Z,21.75
2017-07-11T21:12:19.184Z,21.68
2017-07-11T21:14:47.584Z,21.55
2017-07-11T21:17:15.973Z,21.43
2017-07-11T21:19:44.692Z,21.39
2017-07-11T21:22:13.477Z,21.32
2017-07-11T21:24:42.273Z,21.27
2017-07-11T21:27:10.674Z,21.31
2017-07-11T21:29:39.087Z,21.18
2017-07-11T21:32:07.542Z,21.13
2017-07-11T21:34:35.945Z,21.14
2017-07-11T21:37:04.359Z,21.05
2017-07-11T21:39:33.470Z,20.86
2017-07-11T21:42:02.272Z,20.76
2017-07-11T21:44:30.661Z,20.65
2017-07-11T21:46:59.326Z,20.62
2017-07-11T21:49:28.109Z,20.56
2017-07-11T21:51:57.510Z,20.58
2017-07-11T21:54:27.276Z,20.60
2017-07-11T21:56:55.684Z,20.55
2017-07-11T21:59:24.076Z,20.62
2017-07-11T22:01:53.186Z,20.60
2017-07-11T22:04:21.964Z,20.54
2017-07-11T22:06:50.957Z,20.50
2017-07-11T22:09:19.740Z,20.42
2017-07-11T22:11:48.440Z,20.40
2017-07-11T22:14:16.853Z,20.50
2017-07-11T22:16:45.246Z,20.48
2017-07-11T22:19:13.877Z,20.32
2017-07-11T22:21:42.757Z,20.22
2017-07-11T22:24:11.199Z,20.23
2017-07-11T22:26:40.526Z,20.30
2017-07-11T22:29:09.252Z,20.40
2017-07-11T22:31:38.037Z,20.36
2017-07-11T22:34:07.846Z,20.37
2017-07-11T22:36:36.631Z,20.51
2017-07-11T22:39:05.739Z,20.61
2017-07-11T22:41:34.408Z,20.69
2017-07-11T22:44:02.810Z,20.75
2017-07-11T22:46:31.494Z,20.62
2017-07-11T22:49:00.469Z,20.59
2017-07-11T22:51:28.866Z,20.69
2017-07-11T22:53:57.651Z,20.56
2017-07-11T22:56:27.058Z,20.56
2017-07-11T22:58:55.845Z,20.56
2017-07-11T23:01:24.635Z,20.55
2017-07-11T23:03:53.628Z,20.53
2017-07-11T23:06:22.422Z,20.51
2017-07-11T23:08:51.209Z,20.48
2017-07-11T23:11:20.606Z,20.50
2017-07-11T23:13:49.773Z,20.38
2017-07-11T23:16:18.166Z,20.28
2017-07-11T23:18:46.757Z,20.26
2017-07-11T23:21:15.154Z,20.23
2017-07-11T23:23:43.959Z,20.10
2017-07-11T23:26:12.379Z,20.06
2017-07-11T23:28:40.994Z,19.94
2017-07-11T23:31:09.782Z,19.92
2017-07-11T23:33:38.577Z,19.80
2017-07-11T23:36:07.391Z,19.78
2017-07-11T23:38:36.069Z,19.71
2017-07-11T23:41:04.525Z,19.59
2017-07-11T23:43:33.325Z,19.65
2017-07-11T23:46:02.322Z,19.60
2017-07-11T23:48:31.893Z,19.43
2017-07-11T23:51:00.275Z,19.33
2017-07-11T23:53:28.686Z,19.20
2017-07-11T23:55:57.486Z,19.16
2017-07-11T23:58:26.587Z,19.07
